PWSweather.com
Personal Weather Stations
Station Observations
KILMORRI1
Goose Lake, Morris, IL 60450

Goose LakeMorris, IL 60450

Lat: 41.34, Lon: -88.3

Elevation: 523

Station Type:

Latest ConditionsUpdated 10:00:04 AM CDT Monday, Oct 23, 2017
Currently Today's Max Today's Min Today's Average
Temperature 52.2°F11.2°C 52.2°F11.2°C 51.2°F10.7°C 51.6°F10.9°C
Dew Point 50.8°F10.4°C 50.8°F10.4°C 49.8°F9.9°C 50.2°F10.1°C
Winds 3.5 mph N5.6 kmh N 8.1 mph N13.0 kmh N - 4.0 mph 6.4 kmh
Wind Gusts 4.6 mph7.4 kmh 13.8 mph22.2 kmh - -
Humidity 95% 95% 94% 95%
Pressure 29.81 in1009.5 mb 29.96 in1014.6 mb 29.81 in1009.5 mb -
Precipitation - 0.47 in11.9 mm - -
Hour Temp Dew Point Humidity Winds Wind Gusts Pressure Precip Precip Rate Daily Precip Total
10:00 AM 52.2°F11.2°C 50.8°F10.4°C 95% 3.5 mph N5.6 kmh N 4.6 mph7.4 kmh 29.81 in1009.5 mb - 0.00 in0.0 mm 0.47 in11.9 mm
09:50 AM 52.2°F11.2°C 50.8°F10.4°C 95% 4.6 mph NNE7.4 kmh NNE 8.1 mph13.0 kmh 29.82 in1009.8 mb - 0.00 in0.0 mm 0.47 in11.9 mm
09:40 AM 52.0°F11.1°C 50.6°F10.3°C 95% 3.5 mph N5.6 kmh N 4.6 mph7.4 kmh 29.82 in1009.8 mb - 0.01 in0.3 mm 0.47 in11.9 mm
09:30 AM 52.0°F11.1°C 50.6°F10.3°C 95% 4.6 mph N7.4 kmh N 6.9 mph11.1 kmh 29.82 in1009.8 mb - 0.00 in0.0 mm 0.46 in11.7 mm
09:20 AM 52.0°F11.1°C 50.6°F10.3°C 95% 3.5 mph N5.6 kmh N 5.8 mph9.3 kmh 29.82 in1009.8 mb - 0.00 in0.0 mm 0.46 in11.7 mm
09:10 AM 51.9°F11.1°C 50.6°F10.3°C 95% 3.5 mph N5.6 kmh N 6.9 mph11.1 kmh 29.81 in1009.5 mb - 0.01 in0.3 mm 0.46 in11.7 mm
09:00 AM 51.8°F11.0°C 50.4°F10.2°C 95% 4.6 mph NE7.4 kmh NE 5.8 mph9.3 kmh 29.81 in1009.5 mb - 0.00 in0.0 mm 0.45 in11.4 mm
08:50 AM 51.8°F11.0°C 50.4°F10.2°C 95% 4.6 mph NNE7.4 kmh NNE 6.9 mph11.1 kmh 29.82 in1009.8 mb - 0.00 in0.0 mm 0.45 in11.4 mm
08:40 AM 51.8°F11.0°C 50.4°F10.2°C 95% 5.8 mph NNE9.3 kmh NNE 6.9 mph11.1 kmh 29.84 in1010.5 mb - 0.00 in0.0 mm 0.45 in11.4 mm
08:30 AM 51.8°F11.0°C 50.4°F10.2°C 95% 5.8 mph N9.3 kmh N 11.5 mph18.5 kmh 29.85 in1010.8 mb - 0.02 in0.5 mm 0.45 in11.4 mm
08:20 AM 51.8°F11.0°C 50.4°F10.2°C 95% 3.5 mph N5.6 kmh N 5.8 mph9.3 kmh 29.85 in1010.8 mb - 0.02 in0.5 mm 0.44 in11.2 mm
08:10 AM 51.7°F10.9°C 50.3°F10.2°C 95% 3.5 mph N5.6 kmh N 3.5 mph5.6 kmh 29.85 in1010.8 mb - 0.00 in0.0 mm 0.42 in10.7 mm
08:00 AM 51.7°F10.9°C 50.3°F10.2°C 95% 3.5 mph N5.6 kmh N 8.1 mph13.0 kmh 29.84 in1010.5 mb - 0.01 in0.3 mm 0.42 in10.7 mm
07:50 AM 51.7°F10.9°C 50.3°F10.2°C 95% 3.5 mph NNE5.6 kmh NNE 5.8 mph9.3 kmh 29.84 in1010.5 mb - 0.01 in0.3 mm 0.41 in10.4 mm
07:40 AM 51.7°F10.9°C 50.3°F10.2°C 95% 2.3 mph NE3.7 kmh NE 3.5 mph5.6 kmh 29.84 in1010.5 mb - 0.01 in0.3 mm 0.40 in10.2 mm
07:30 AM 51.7°F10.9°C 50.3°F10.2°C 95% 3.5 mph N5.6 kmh N 6.9 mph11.1 kmh 29.85 in1010.8 mb - 0.01 in0.3 mm 0.40 in10.2 mm
07:20 AM 51.7°F10.9°C 50.3°F10.2°C 95% 3.5 mph NNE5.6 kmh NNE 8.1 mph13.0 kmh 29.85 in1010.8 mb - 0.00 in0.0 mm 0.39 in9.9 mm
07:10 AM 51.7°F10.9°C 50.3°F10.2°C 95% 3.5 mph NNE5.6 kmh NNE 5.8 mph9.3 kmh 29.85 in1010.8 mb - 0.00 in0.0 mm 0.39 in9.9 mm
07:00 AM 51.6°F10.9°C 50.2°F10.1°C 95% 3.5 mph NNE5.6 kmh NNE 5.8 mph9.3 kmh 29.84 in1010.5 mb - 0.00 in0.0 mm 0.39 in9.9 mm
06:50 AM 51.5°F10.8°C 50.1°F10.1°C 95% 3.5 mph NE5.6 kmh NE 4.6 mph7.4 kmh 29.84 in1010.5 mb - 0.00 in0.0 mm 0.39 in9.9 mm
06:40 AM 51.5°F10.8°C 50.1°F10.1°C 95% 3.5 mph NNE5.6 kmh NNE 9.2 mph14.8 kmh 29.84 in1010.5 mb - 0.01 in0.3 mm 0.39 in9.9 mm
06:30 AM 51.5°F10.8°C 50.1°F10.1°C 95% 4.6 mph NNE7.4 kmh NNE 6.9 mph11.1 kmh 29.85 in1010.8 mb - 0.01 in0.3 mm 0.38 in9.7 mm
06:20 AM 51.5°F10.8°C 50.1°F10.1°C 95% 3.5 mph NE5.6 kmh NE 3.5 mph5.6 kmh 29.86 in1011.2 mb - 0.01 in0.3 mm 0.37 in9.4 mm
06:10 AM 51.4°F10.8°C 50.0°F10.0°C 95% 3.5 mph N5.6 kmh N 5.8 mph9.3 kmh 29.86 in1011.2 mb - 0.02 in0.5 mm 0.37 in9.4 mm
06:00 AM 51.4°F10.8°C 50.0°F10.0°C 95% 4.6 mph N7.4 kmh N 8.1 mph13.0 kmh 29.86 in1011.2 mb - 0.01 in0.3 mm 0.35 in8.9 mm
05:50 AM 51.4°F10.8°C 50.0°F10.0°C 95% 5.8 mph N9.3 kmh N 11.5 mph18.5 kmh 29.87 in1011.5 mb - 0.00 in0.0 mm 0.34 in8.6 mm
05:40 AM 51.4°F10.8°C 50.0°F10.0°C 95% 6.9 mph N11.1 kmh N 11.5 mph18.5 kmh 29.87 in1011.5 mb - 0.01 in0.3 mm 0.34 in8.6 mm
05:30 AM 51.4°F10.8°C 50.0°F10.0°C 95% 8.1 mph N13.0 kmh N 12.7 mph20.4 kmh 29.87 in1011.5 mb - 0.00 in0.0 mm 0.33 in8.4 mm
05:20 AM 51.4°F10.8°C 50.0°F10.0°C 95% 4.6 mph N7.4 kmh N 10.4 mph16.7 kmh 29.87 in1011.5 mb - 0.01 in0.3 mm 0.33 in8.4 mm
05:10 AM 51.4°F10.8°C 50.0°F10.0°C 95% 5.8 mph NNE9.3 kmh NNE 6.9 mph11.1 kmh 29.87 in1011.5 mb - 0.01 in0.3 mm 0.32 in8.1 mm
05:00 AM 51.3°F10.7°C 49.9°F9.9°C 95% 4.6 mph NNE7.4 kmh NNE 10.4 mph16.7 kmh 29.87 in1011.5 mb - 0.02 in0.5 mm 0.31 in7.9 mm
04:50 AM 51.2°F10.7°C 49.9°F9.9°C 95% 5.8 mph N9.3 kmh N 8.1 mph13.0 kmh 29.88 in1011.9 mb - 0.02 in0.5 mm 0.29 in7.4 mm
04:40 AM 51.2°F10.7°C 49.8°F9.9°C 95% 6.9 mph NNE11.1 kmh NNE 13.8 mph22.2 kmh 29.88 in1011.9 mb - 0.01 in0.3 mm 0.27 in6.9 mm
04:30 AM 51.2°F10.7°C 49.8°F9.9°C 95% 4.6 mph NNE7.4 kmh NNE 6.9 mph11.1 kmh 29.88 in1011.9 mb - 0.02 in0.5 mm 0.26 in6.6 mm
04:20 AM 51.2°F10.7°C 49.8°F9.9°C 95% 6.9 mph N11.1 kmh N 11.5 mph18.5 kmh 29.89 in1012.2 mb - 0.01 in0.3 mm 0.24 in6.1 mm
04:10 AM 51.2°F10.7°C 49.8°F9.9°C 95% 3.5 mph N5.6 kmh N 6.9 mph11.1 kmh 29.90 in1012.5 mb - 0.02 in0.5 mm 0.23 in5.8 mm
04:00 AM 51.4°F10.8°C 50.0°F10.0°C 95% 5.8 mph N9.3 kmh N 11.5 mph18.5 kmh 29.90 in1012.5 mb - 0.03 in0.8 mm 0.21 in5.3 mm
03:50 AM 51.5°F10.8°C 50.1°F10.1°C 95% 3.5 mph N5.6 kmh N 4.6 mph7.4 kmh 29.91 in1012.9 mb - 0.02 in0.5 mm 0.19 in4.8 mm
03:40 AM 51.5°F10.8°C 50.1°F10.1°C 95% 4.6 mph N7.4 kmh N 6.9 mph11.1 kmh 29.91 in1012.9 mb - 0.03 in0.8 mm 0.17 in4.3 mm
03:30 AM 51.5°F10.8°C 50.1°F10.1°C 95% 2.3 mph N3.7 kmh N 4.6 mph7.4 kmh 29.91 in1012.9 mb - 0.02 in0.5 mm 0.14 in3.6 mm
03:20 AM 51.5°F10.8°C 50.1°F10.1°C 95% 1.2 mph N1.9 kmh N 3.5 mph5.6 kmh 29.91 in1012.9 mb - 0.02 in0.5 mm 0.13 in3.3 mm
03:10 AM 51.6°F10.9°C 50.2°F10.1°C 95% 3.5 mph N5.6 kmh N 5.8 mph9.3 kmh 29.92 in1013.2 mb - 0.01 in0.3 mm 0.11 in2.8 mm
03:00 AM 51.5°F10.8°C 50.1°F10.1°C 95% 4.6 mph N7.4 kmh N 8.1 mph13.0 kmh 29.92 in1013.2 mb - 0.01 in0.3 mm 0.10 in2.5 mm
02:50 AM 51.5°F10.8°C 50.1°F10.1°C 95% 3.5 mph N5.6 kmh N 4.6 mph7.4 kmh 29.92 in1013.2 mb - 0.02 in0.5 mm 0.09 in2.3 mm
02:40 AM 51.5°F10.8°C 50.1°F10.1°C 95% 3.5 mph NNE5.6 kmh NNE 5.8 mph9.3 kmh 29.92 in1013.2 mb - 0.01 in0.3 mm 0.08 in2.0 mm
02:30 AM 51.5°F10.8°C 49.8°F9.9°C 94% 2.3 mph N3.7 kmh N 5.8 mph9.3 kmh 29.92 in1013.2 mb - 0.01 in0.3 mm 0.07 in1.8 mm
02:20 AM 51.5°F10.8°C 50.1°F10.1°C 95% 3.5 mph N5.6 kmh N 4.6 mph7.4 kmh 29.93 in1013.5 mb - 0.00 in0.0 mm 0.06 in1.5 mm
02:10 AM 51.4°F10.8°C 49.8°F9.9°C 94% 4.6 mph N7.4 kmh N 6.9 mph11.1 kmh 29.93 in1013.5 mb - 0.01 in0.3 mm 0.06 in1.5 mm
02:00 AM 51.5°F10.8°C 49.8°F9.9°C 94% 3.5 mph NNE5.6 kmh NNE 3.5 mph5.6 kmh 29.93 in1013.5 mb - 0.00 in0.0 mm 0.05 in1.3 mm
01:50 AM 51.6°F10.9°C 49.9°F9.9°C 94% 3.5 mph N5.6 kmh N 6.9 mph11.1 kmh 29.93 in1013.5 mb - 0.01 in0.3 mm 0.05 in1.3 mm
01:40 AM 51.9°F11.1°C 50.2°F10.1°C 94% 3.5 mph NNW5.6 kmh NNW 5.8 mph9.3 kmh 29.94 in1013.9 mb - 0.01 in0.3 mm 0.04 in1.0 mm
01:30 AM 51.9°F11.1°C 50.2°F10.1°C 94% 3.5 mph N5.6 kmh N 5.8 mph9.3 kmh 29.94 in1013.9 mb - 0.01 in0.3 mm 0.03 in0.8 mm
01:20 AM 51.7°F10.9°C 50.0°F10.0°C 94% 3.5 mph N5.6 kmh N 3.5 mph5.6 kmh 29.95 in1014.2 mb - 0.01 in0.3 mm 0.02 in0.5 mm
01:10 AM 51.7°F10.9°C 50.3°F10.2°C 95% 3.5 mph N5.6 kmh N 4.6 mph7.4 kmh 29.95 in1014.2 mb - 0.00 in0.0 mm 0.01 in0.3 mm
01:00 AM 51.8°F11.0°C 50.1°F10.1°C 94% 3.5 mph 5.6 kmh 5.8 mph9.3 kmh 29.94 in1013.9 mb - 0.00 in0.0 mm 0.01 in0.3 mm
12:50 AM 51.8°F11.0°C 50.4°F10.2°C 95% 3.5 mph N5.6 kmh N 4.6 mph7.4 kmh 29.94 in1013.9 mb - 0.00 in0.0 mm 0.01 in0.3 mm
12:40 AM 51.9°F11.1°C 50.5°F10.3°C 95% 3.5 mph N5.6 kmh N 4.6 mph7.4 kmh 29.95 in1014.2 mb - 0.00 in0.0 mm 0.01 in0.3 mm
12:30 AM 52.0°F11.1°C 50.6°F10.3°C 95% 3.5 mph N5.6 kmh N 4.6 mph7.4 kmh 29.95 in1014.2 mb - 0.00 in0.0 mm 0.01 in0.3 mm
12:20 AM 52.1°F11.2°C 50.7°F10.4°C 95% 2.3 mph N3.7 kmh N 4.6 mph7.4 kmh 29.95 in1014.2 mb - 0.01 in0.3 mm 0.01 in0.3 mm
12:10 AM 52.1°F11.2°C 50.7°F10.4°C 95% 2.3 mph NNE3.7 kmh NNE 3.5 mph5.6 kmh 29.96 in1014.6 mb - 0.00 in0.0 mm 0.00 in0.0 mm
12:00 AM 52.1°F11.2°C 50.7°F10.4°C 95% 2.3 mph NNE3.7 kmh NNE 3.5 mph5.6 kmh 29.96 in1014.6 mb - 0.00 in0.0 mm 0.00 in0.0 mm